Terminal Aerodrome Forecast
Issued by NWS

Home | Current Version | Previous Version | Graphics & Text | Print | Product List | Glossary On
Versions: 1 2 3 4 5 6 7 8 9 10 11 12 13 14 15 16 17 18 19 20 21 22 23 24 25 26
089
FTUS43 KLOT 251042 AAC
TAFORD
TAF AMD
KORD 251042Z 2511/2612 30017G25KT 6SM -SHSN BKN017 OVC025
      TEMPO 2511/2512 4SM -SHSN
     FM251500 29015G23KT P6SM BKN022 BKN035
     FM252300 29013G19KT P6SM BKN035
     FM260300 28008KT P6SM SCT150
     FM261000 21006KT P6SM BKN090=

USA.gov is the U.S. government's official web portal to all federal, state and local government web resources and services.